Time;durP1;ratioP1;P1;durP2;ratioP2;P2;SDS_P1;SDS_P2;PMS_P1;PMS_P2;Temp;Humidity;BMP_temperature;BMP_pressure;BME280_temperature;BME280_humidity;BME280_pressure;Samples;Min_cycle;Max_cycle;Signal;HPM_P1;HPM_P2
2021/07/04 00:00:57;;;;;;;;;;;27.10;49.90;;;;;;5137977;27;20313;-58
2021/07/04 00:03:24;;;;;;;;;;;27.10;49.90;;;;;;5136326;27;19923;-57
2021/07/04 00:05:51;;;;;;;;;;;27.10;49.90;;;;;;5136547;27;19924;-58
2021/07/04 00:08:19;;;;;;;;;;;27.10;49.90;;;;;;5137346;27;19978;-58
2021/07/04 00:10:49;;;;;;;;;;;27.10;49.90;;;;;;5137513;27;20323;-58
2021/07/04 00:13:16;;;;;;;;;;;27.10;49.90;;;;;;5110406;28;20019;-58
2021/07/04 00:15:43;;;;;;;;;;;27.10;50.50;;;;;;5121397;27;20332;-58
2021/07/04 00:18:15;;;;;;;;;;;27.10;49.90;;;;;;5131144;27;20004;-58
2021/07/04 00:20:42;;;;;;;;;;;27.10;50.00;;;;;;5134232;27;19924;-58
2021/07/04 00:23:10;;;;;;;;;;;27.10;50.00;;;;;;5133680;27;19959;-58
2021/07/04 00:25:37;;;;;;;;;;;27.10;50.00;;;;;;5115813;27;20463;-58
2021/07/04 00:28:04;;;;;;;;;;;27.10;50.00;;;;;;5132719;27;19996;-58
2021/07/04 00:30:32;;;;;;;;;;;27.10;50.00;;;;;;5130377;27;19958;-58
2021/07/04 00:32:58;;;;;;;;;;;27.10;50.10;;;;;;5121304;27;19927;-58
2021/07/04 00:35:26;;;;;;;;;;;27.10;50.10;;;;;;5132380;27;19946;-58
2021/07/04 00:37:53;;;;;;;;;;;27.10;50.10;;;;;;5133610;27;19966;-58
2021/07/04 00:40:21;;;;;;;;;;;27.10;50.10;;;;;;5132721;27;19973;-58
2021/07/04 00:42:48;;;;;;;;;;;27.10;50.10;;;;;;5133747;27;19970;-58
2021/07/04 00:45:17;;;;;;;;;;;27.10;50.10;;;;;;5134805;27;19946;-58
2021/07/04 00:47:44;;;;;;;;;;;27.10;50.10;;;;;;5134550;27;20022;-58
2021/07/04 00:50:12;;;;;;;;;;;27.10;50.10;;;;;;5135016;27;19963;-58
2021/07/04 00:52:39;;;;;;;;;;;27.10;50.10;;;;;;5134688;27;20371;-57
2021/07/04 00:55:07;;;;;;;;;;;27.10;50.10;;;;;;5133597;27;20006;-58
2021/07/04 00:57:34;;;;;;;;;;;27.10;50.10;;;;;;5133533;27;20492;-58
2021/07/04 01:00:04;;;;;;;;;;;27.10;50.10;;;;;;5132026;27;19923;-58
2021/07/04 01:02:31;;;;;;;;;;;27.10;50.10;;;;;;5128949;27;19938;-58
2021/07/04 01:04:58;;;;;;;;;;;27.10;50.10;;;;;;5135647;27;19968;-58
2021/07/04 01:07:24;;;;;;;;;;;27.10;50.10;;;;;;5134700;27;19958;-58
2021/07/04 01:09:52;;;;;;;;;;;27.10;50.10;;;;;;5120745;27;20455;-58
2021/07/04 01:12:19;;;;;;;;;;;27.10;50.10;;;;;;5117099;27;19975;-58
2021/07/04 01:14:46;;;;;;;;;;;27.10;50.10;;;;;;5127808;27;19958;-58
2021/07/04 01:17:13;;;;;;;;;;;27.10;50.20;;;;;;5131766;27;20391;-58
2021/07/04 01:19:40;;;;;;;;;;;27.10;50.20;;;;;;5131483;27;19930;-58
2021/07/04 01:22:09;;;;;;;;;;;27.10;50.20;;;;;;5131964;27;20009;-58
2021/07/04 01:24:36;;;;;;;;;;;27.10;50.20;;;;;;5135519;27;19935;-58
2021/07/04 01:27:03;;;;;;;;;;;27.10;50.80;;;;;;5133717;27;19923;-58
2021/07/04 01:29:30;;;;;;;;;;;27.10;50.20;;;;;;5134687;27;20418;-58
2021/07/04 01:31:57;;;;;;;;;;;27.10;50.20;;;;;;5132834;27;19924;-58
2021/07/04 01:34:24;;;;;;;;;;;27.10;50.20;;;;;;5132464;27;19924;-58
2021/07/04 01:36:51;;;;;;;;;;;27.00;50.20;;;;;;5133142;27;19932;-58
2021/07/04 01:39:18;;;;;;;;;;;27.10;50.30;;;;;;5133947;27;19981;-58
2021/07/04 01:41:45;;;;;;;;;;;27.00;50.20;;;;;;5133046;27;19923;-58
2021/07/04 01:44:12;;;;;;;;;;;27.00;50.20;;;;;;5134677;27;19923;-58
2021/07/04 01:46:39;;;;;;;;;;;27.10;50.20;;;;;;5133722;27;19924;-58
2021/07/04 01:49:06;;;;;;;;;;;27.00;50.20;;;;;;5133652;27;19930;-58
2021/07/04 01:51:33;;;;;;;;;;;27.00;50.20;;;;;;5132106;27;19923;-58
2021/07/04 01:54:00;;;;;;;;;;;27.00;50.20;;;;;;5133632;27;19976;-58
2021/07/04 01:56:27;;;;;;;;;;;27.00;50.20;;;;;;5132476;27;20339;-58
2021/07/04 01:58:54;;;;;;;;;;;27.00;50.20;;;;;;5133214;27;19983;-58
2021/07/04 02:01:21;;;;;;;;;;;27.00;50.20;;;;;;5119839;27;20018;-58
2021/07/04 02:03:48;;;;;;;;;;;27.00;50.20;;;;;;5117649;27;19931;-58
2021/07/04 02:06:15;;;;;;;;;;;27.00;50.20;;;;;;5110983;27;19973;-57
2021/07/04 02:08:42;;;;;;;;;;;27.00;50.20;;;;;;5134760;27;20006;-58
2021/07/04 02:11:09;;;;;;;;;;;27.00;50.20;;;;;;5132235;27;19974;-58
2021/07/04 02:13:36;;;;;;;;;;;27.00;50.30;;;;;;5133049;27;19931;-58
2021/07/04 02:16:04;;;;;;;;;;;27.00;50.20;;;;;;5116053;27;20326;-58
2021/07/04 02:18:31;;;;;;;;;;;27.00;50.20;;;;;;5132690;27;19938;-57
2021/07/04 02:20:58;;;;;;;;;;;27.00;50.20;;;;;;5130703;27;19923;-57
2021/07/04 02:23:29;;;;;;;;;;;27.00;50.20;;;;;;5131089;27;20367;-57
2021/07/04 02:25:57;;;;;;;;;;;27.00;50.20;;;;;;5132851;27;20003;-57
2021/07/04 02:28:25;;;;;;;;;;;27.00;50.20;;;;;;5130125;27;19924;-57
2021/07/04 02:30:53;;;;;;;;;;;27.00;50.20;;;;;;5117814;27;20342;-57
2021/07/04 02:33:21;;;;;;;;;;;27.00;50.20;;;;;;5131595;27;20328;-57
2021/07/04 02:35:50;;;;;;;;;;;27.00;50.20;;;;;;5130872;27;20275;-57
2021/07/04 02:38:17;;;;;;;;;;;27.00;50.20;;;;;;5131860;27;19930;-57
2021/07/04 02:40:49;;;;;;;;;;;27.00;50.30;;;;;;5131693;27;19923;-57
2021/07/04 02:43:17;;;;;;;;;;;27.00;50.80;;;;;;5131109;27;19923;-58
2021/07/04 02:45:44;;;;;;;;;;;27.00;50.30;;;;;;5131763;27;19924;-57
2021/07/04 02:48:12;;;;;;;;;;;27.00;50.30;;;;;;5131482;27;20396;-57
2021/07/04 02:50:40;;;;;;;;;;;27.00;50.20;;;;;;5132647;27;20260;-58
2021/07/04 02:53:07;;;;;;;;;;;27.00;50.30;;;;;;5116535;27;20019;-58
2021/07/04 02:55:34;;;;;;;;;;;27.00;50.30;;;;;;5132787;27;20014;-58
2021/07/04 02:58:01;;;;;;;;;;;27.00;50.30;;;;;;5133318;27;20006;-57
2021/07/04 03:00:28;;;;;;;;;;;27.00;50.30;;;;;;5133891;27;19965;-57
2021/07/04 03:02:55;;;;;;;;;;;27.00;50.30;;;;;;5118033;27;19974;-57
2021/07/04 03:05:22;;;;;;;;;;;27.00;50.30;;;;;;5110750;28;19934;-57
2021/07/04 03:07:49;;;;;;;;;;;27.00;50.30;;;;;;5122191;28;19924;-57
2021/07/04 03:10:17;;;;;;;;;;;27.00;50.30;;;;;;5123678;28;19927;-57
2021/07/04 03:12:44;;;;;;;;;;;27.00;50.30;;;;;;5129119;28;19927;-58
2021/07/04 03:15:13;;;;;;;;;;;27.00;50.30;;;;;;5131115;28;19930;-58
2021/07/04 03:17:40;;;;;;;;;;;27.00;50.20;;;;;;5132596;28;20342;-58
2021/07/04 03:20:08;;;;;;;;;;;27.00;50.20;;;;;;5130651;28;19924;-57
2021/07/04 03:22:35;;;;;;;;;;;27.10;50.30;;;;;;5131399;28;20260;-58
2021/07/04 03:25:04;;;;;;;;;;;27.10;50.30;;;;;;5132186;28;19976;-58
2021/07/04 03:27:31;;;;;;;;;;;27.10;50.30;;;;;;5130469;28;19976;-57
2021/07/04 03:29:58;;;;;;;;;;;27.10;50.30;;;;;;5131831;28;19977;-58
2021/07/04 03:32:24;;;;;;;;;;;27.00;50.20;;;;;;5114190;28;19924;-58
2021/07/04 03:34:52;;;;;;;;;;;27.10;50.40;;;;;;5131129;28;20017;-58
2021/07/04 03:37:19;;;;;;;;;;;27.00;50.30;;;;;;5113910;28;20367;-58
2021/07/04 03:39:46;;;;;;;;;;;27.10;50.30;;;;;;5132173;28;19999;-58
2021/07/04 03:42:13;;;;;;;;;;;27.10;50.40;;;;;;5131691;28;19923;-58
2021/07/04 03:44:40;;;;;;;;;;;27.00;50.40;;;;;;5132248;28;19930;-58
2021/07/04 03:47:07;;;;;;;;;;;27.00;50.30;;;;;;5114974;28;20043;-58
2021/07/04 03:49:34;;;;;;;;;;;27.00;50.40;;;;;;5132182;28;20370;-58
2021/07/04 03:52:01;;;;;;;;;;;27.00;50.40;;;;;;5116137;28;19928;-58
2021/07/04 03:54:28;;;;;;;;;;;27.00;50.40;;;;;;5111106;28;20010;-58
2021/07/04 03:56:55;;;;;;;;;;;27.00;50.40;;;;;;5135362;27;19976;-58
2021/07/04 03:59:22;;;;;;;;;;;27.00;50.40;;;;;;5137418;27;19972;-58
2021/07/04 04:01:49;;;;;;;;;;;27.10;50.50;;;;;;5117913;27;20328;-58
2021/07/04 04:04:16;;;;;;;;;;;27.00;50.40;;;;;;5118595;27;19923;-58
2021/07/04 04:06:43;;;;;;;;;;;27.00;50.40;;;;;;5133175;27;19935;-58
2021/07/04 04:09:10;;;;;;;;;;;27.00;50.50;;;;;;5133697;27;19923;-58
2021/07/04 04:11:37;;;;;;;;;;;27.00;50.50;;;;;;5134321;27;19923;-58
2021/07/04 04:14:04;;;;;;;;;;;27.00;50.50;;;;;;5135518;27;19924;-58
2021/07/04 04:16:31;;;;;;;;;;;27.10;50.50;;;;;;5133956;27;19927;-58
2021/07/04 04:18:58;;;;;;;;;;;27.10;50.60;;;;;;5132868;27;19923;-58
2021/07/04 04:21:25;;;;;;;;;;;27.10;50.60;;;;;;5134212;27;19923;-58
2021/07/04 04:23:52;;;;;;;;;;;27.00;50.60;;;;;;5134455;27;19927;-58
2021/07/04 04:26:19;;;;;;;;;;;27.10;50.60;;;;;;5132920;27;19931;-58
2021/07/04 04:28:46;;;;;;;;;;;27.10;50.70;;;;;;5132526;27;20395;-58
2021/07/04 04:31:13;;;;;;;;;;;27.00;50.60;;;;;;5135114;27;19972;-58
2021/07/04 04:33:40;;;;;;;;;;;27.00;50.60;;;;;;5132918;27;20333;-58
2021/07/04 04:36:07;;;;;;;;;;;27.00;50.60;;;;;;5134441;27;19969;-59
2021/07/04 04:38:34;;;;;;;;;;;27.10;50.70;;;;;;5117390;27;19923;-59
2021/07/04 04:41:01;;;;;;;;;;;27.00;50.70;;;;;;5135306;27;19923;-59
2021/07/04 04:43:28;;;;;;;;;;;27.10;50.70;;;;;;5117269;27;20276;-59
2021/07/04 04:45:55;;;;;;;;;;;27.10;50.70;;;;;;5119024;27;20291;-57
2021/07/04 04:48:22;;;;;;;;;;;27.10;50.80;;;;;;5117932;27;19928;-59
2021/07/04 04:50:49;;;;;;;;;;;27.10;50.80;;;;;;5133338;27;19923;-59
2021/07/04 04:53:16;;;;;;;;;;;27.10;50.80;;;;;;5132461;27;20283;-59
2021/07/04 04:55:43;;;;;;;;;;;27.10;50.80;;;;;;5133289;27;19976;-59
2021/07/04 04:58:12;;;;;;;;;;;27.10;50.80;;;;;;5132711;27;20339;-59
2021/07/04 05:00:39;;;;;;;;;;;27.10;50.80;;;;;;5133261;27;20379;-59
2021/07/04 05:03:06;;;;;;;;;;;27.10;50.80;;;;;;5134946;27;19963;-58
2021/07/04 05:05:34;;;;;;;;;;;27.10;50.80;;;;;;5131408;27;20002;-58
2021/07/04 05:08:01;;;;;;;;;;;27.10;50.80;;;;;;5135614;27;19923;-59
2021/07/04 05:10:28;;;;;;;;;;;27.10;50.80;;;;;;5133983;27;20402;-59
2021/07/04 05:12:55;;;;;;;;;;;27.10;50.80;;;;;;5132419;27;19972;-59
2021/07/04 05:15:22;;;;;;;;;;;27.10;50.80;;;;;;5134686;27;19970;-59
2021/07/04 05:17:49;;;;;;;;;;;27.10;50.80;;;;;;5131980;27;19924;-59
2021/07/04 05:20:17;;;;;;;;;;;27.10;50.80;;;;;;5132800;27;20352;-59
2021/07/04 05:22:44;;;;;;;;;;;27.10;50.80;;;;;;5133004;27;19936;-59
2021/07/04 05:25:12;;;;;;;;;;;27.10;50.80;;;;;;5131549;27;19927;-59
2021/07/04 05:27:39;;;;;;;;;;;27.20;50.90;;;;;;5133966;27;20379;-59
2021/07/04 05:30:07;;;;;;;;;;;27.20;50.90;;;;;;5117279;27;20329;-59
2021/07/04 05:32:34;;;;;;;;;;;27.20;50.90;;;;;;5134160;27;19923;-59
2021/07/04 05:35:01;;;;;;;;;;;27.20;50.90;;;;;;5133307;27;19983;-59
2021/07/04 05:37:29;;;;;;;;;;;27.20;50.90;;;;;;5132477;27;19946;-59
2021/07/04 05:39:58;;;;;;;;;;;27.20;50.90;;;;;;5132487;27;20439;-59
2021/07/04 05:42:25;;;;;;;;;;;27.20;50.80;;;;;;5134487;27;19923;-59
2021/07/04 05:44:52;;;;;;;;;;;27.20;50.90;;;;;;5131780;27;19935;-59
2021/07/04 05:47:19;;;;;;;;;;;27.20;50.90;;;;;;5115506;27;20371;-59
2021/07/04 05:49:46;;;;;;;;;;;27.20;50.90;;;;;;5134799;27;19924;-59
2021/07/04 05:52:13;;;;;;;;;;;27.20;50.90;;;;;;5132109;27;19946;-59
2021/07/04 05:54:40;;;;;;;;;;;27.20;50.80;;;;;;5134493;27;19930;-59
2021/07/04 05:57:07;;;;;;;;;;;27.20;50.80;;;;;;5132426;27;19923;-59
2021/07/04 05:59:34;;;;;;;;;;;27.20;50.80;;;;;;5131844;27;19980;-59
2021/07/04 06:02:02;;;;;;;;;;;27.30;50.90;;;;;;5132607;27;19968;-59
2021/07/04 06:04:29;;;;;;;;;;;27.30;50.90;;;;;;5131933;27;19976;-59
2021/07/04 06:06:56;;;;;;;;;;;27.30;50.90;;;;;;5130764;27;19923;-58
2021/07/04 06:09:23;;;;;;;;;;;27.30;50.90;;;;;;5131465;27;19923;-59
2021/07/04 06:11:51;;;;;;;;;;;27.30;50.90;;;;;;5131287;27;19927;-59
2021/07/04 06:14:18;;;;;;;;;;;27.30;50.90;;;;;;5131690;27;20363;-58
2021/07/04 06:16:45;;;;;;;;;;;27.30;50.90;;;;;;5129441;27;19972;-58
2021/07/04 06:19:13;;;;;;;;;;;27.30;50.90;;;;;;5117015;27;19927;-58
2021/07/04 06:21:40;;;;;;;;;;;27.30;50.90;;;;;;5131389;27;19927;-59
2021/07/04 06:24:07;;;;;;;;;;;27.30;50.80;;;;;;5115811;27;19924;-59
2021/07/04 06:26:34;;;;;;;;;;;27.30;50.80;;;;;;5132155;27;19923;-59
2021/07/04 06:29:01;;;;;;;;;;;27.40;50.90;;;;;;5130999;27;20412;-59
2021/07/04 06:31:28;;;;;;;;;;;27.40;50.80;;;;;;5115681;27;19988;-58
2021/07/04 06:33:57;;;;;;;;;;;27.40;50.80;;;;;;5134388;27;20364;-59
2021/07/04 06:36:24;;;;;;;;;;;27.40;50.80;;;;;;5120947;27;20371;-58
2021/07/04 06:38:52;;;;;;;;;;;27.40;50.70;;;;;;5133216;27;19976;-59
2021/07/04 06:41:19;;;;;;;;;;;27.40;50.80;;;;;;5134099;27;19923;-58
2021/07/04 06:43:46;;;;;;;;;;;27.50;50.80;;;;;;5132752;27;19924;-59
2021/07/04 06:46:13;;;;;;;;;;;27.50;50.80;;;;;;5131169;27;19923;-58
2021/07/04 06:48:40;;;;;;;;;;;27.50;50.80;;;;;;5131351;27;19930;-58
2021/07/04 06:51:07;;;;;;;;;;;27.50;50.70;;;;;;5132933;27;20320;-58
2021/07/04 06:53:35;;;;;;;;;;;27.50;50.70;;;;;;5131280;27;19928;-59
2021/07/04 06:56:02;;;;;;;;;;;27.50;50.70;;;;;;5130273;27;19927;-58
2021/07/04 06:58:29;;;;;;;;;;;27.60;50.70;;;;;;5132853;27;19976;-58
2021/07/04 07:00:56;;;;;;;;;;;27.60;50.70;;;;;;5130214;27;19923;-58
2021/07/04 07:03:23;;;;;;;;;;;27.60;50.70;;;;;;5133934;27;20295;-58
2021/07/04 07:05:50;;;;;;;;;;;27.60;50.60;;;;;;5131966;27;19965;-58
2021/07/04 07:08:17;;;;;;;;;;;27.70;50.60;;;;;;5127057;27;19923;-59
2021/07/04 07:10:44;;;;;;;;;;;27.70;50.50;;;;;;5115521;28;20287;-58
2021/07/04 07:13:11;;;;;;;;;;;27.70;50.40;;;;;;5116454;28;19923;-58
2021/07/04 07:15:38;;;;;;;;;;;27.70;50.40;;;;;;5116451;28;19930;-59
2021/07/04 07:18:05;;;;;;;;;;;27.80;50.90;;;;;;5115809;28;20391;-57
2021/07/04 07:20:35;;;;;;;;;;;27.80;50.30;;;;;;5096144;28;20317;-57
2021/07/04 07:23:06;;;;;;;;;;;27.80;50.30;;;;;;5133285;28;19976;-58
2021/07/04 07:25:33;;;;;;;;;;;27.90;50.30;;;;;;5132232;28;19928;-58
2021/07/04 07:28:00;;;;;;;;;;;27.90;50.30;;;;;;5131168;28;19923;-58
2021/07/04 07:30:32;;;;;;;;;;;27.90;50.30;;;;;;5116390;28;20226;-58
2021/07/04 07:32:59;;;;;;;;;;;27.90;50.30;;;;;;5136498;27;19968;-58
2021/07/04 07:35:26;;;;;;;;;;;27.90;50.30;;;;;;5135359;27;19927;-58
2021/07/04 07:37:55;;;;;;;;;;;27.90;50.30;;;;;;5135411;27;19939;-58
2021/07/04 07:40:23;;;;;;;;;;;27.90;50.30;;;;;;5136257;27;20006;-58
2021/07/04 07:42:50;;;;;;;;;;;28.00;50.30;;;;;;5133508;27;20380;-58
2021/07/04 07:45:17;;;;;;;;;;;28.00;50.30;;;;;;5133869;27;19923;-58
2021/07/04 07:47:44;;;;;;;;;;;28.00;50.30;;;;;;5134587;27;19931;-58
2021/07/04 07:50:11;;;;;;;;;;;28.00;50.20;;;;;;5133456;27;19930;-58
2021/07/04 07:52:38;;;;;;;;;;;28.00;50.20;;;;;;5136299;27;19924;-58
2021/07/04 07:55:06;;;;;;;;;;;28.00;50.20;;;;;;5118799;27;20275;-58
2021/07/04 07:57:33;;;;;;;;;;;28.00;50.20;;;;;;5134446;27;19949;-58
2021/07/04 08:00:00;;;;;;;;;;;28.00;50.20;;;;;;5135005;27;19927;-58
2021/07/04 08:02:27;;;;;;;;;;;28.00;50.20;;;;;;5133789;27;19923;-58
2021/07/04 08:04:54;;;;;;;;;;;28.00;50.20;;;;;;5118839;27;19930;-58
2021/07/04 08:07:21;;;;;;;;;;;28.00;50.30;;;;;;5128612;27;20352;-58
2021/07/04 08:09:48;;;;;;;;;;;28.00;50.20;;;;;;5123338;27;19924;-58
2021/07/04 08:12:15;;;;;;;;;;;28.00;50.30;;;;;;5131882;27;20283;-58
2021/07/04 08:14:42;;;;;;;;;;;28.00;50.30;;;;;;5120100;27;19931;-58
2021/07/04 08:17:09;;;;;;;;;;;28.10;50.40;;;;;;5135499;27;19983;-58
2021/07/04 08:19:36;;;;;;;;;;;28.10;50.40;;;;;;5134519;27;20435;-58
2021/07/04 08:22:03;;;;;;;;;;;28.10;50.40;;;;;;5119894;27;20268;-58
2021/07/04 08:24:30;;;;;;;;;;;28.10;50.30;;;;;;5135653;27;19930;-58
2021/07/04 08:26:57;;;;;;;;;;;28.10;50.30;;;;;;5134113;27;19923;-58
2021/07/04 08:29:24;;;;;;;;;;;28.20;50.30;;;;;;5134164;27;20000;-59
2021/07/04 08:31:51;;;;;;;;;;;28.20;50.20;;;;;;5118351;27;20010;-58
2021/07/04 08:34:18;;;;;;;;;;;28.20;50.20;;;;;;5134173;27;19924;-58
2021/07/04 08:36:45;;;;;;;;;;;28.20;50.10;;;;;;5117863;27;19924;-58
2021/07/04 08:39:12;;;;;;;;;;;28.20;50.20;;;;;;5133393;27;19984;-58
2021/07/04 08:41:39;;;;;;;;;;;28.30;50.20;;;;;;5132659;27;19953;-58
2021/07/04 08:44:08;;;;;;;;;;;28.30;50.10;;;;;;5134155;27;19952;-59
2021/07/04 08:46:39;;;;;;;;;;;28.30;50.10;;;;;;5132332;27;19930;-58
2021/07/04 08:49:06;;;;;;;;;;;28.30;50.00;;;;;;5132588;27;20014;-59
2021/07/04 08:51:33;;;;;;;;;;;28.30;50.10;;;;;;5133140;27;20387;-59
2021/07/04 08:54:00;;;;;;;;;;;28.30;50.00;;;;;;5133421;27;19923;-59
2021/07/04 08:56:27;;;;;;;;;;;28.30;50.00;;;;;;5135019;27;19953;-57
2021/07/04 08:58:54;;;;;;;;;;;28.40;50.00;;;;;;5135078;27;20370;-58
2021/07/04 09:01:28;;;;;;;;;;;28.40;50.00;;;;;;5133562;27;20321;-58
2021/07/04 09:04:12;;;;;;;;;;;28.40;49.80;;;;;;5126623;27;20003;-58
2021/07/04 09:06:43;;;;;;;;;;;28.50;49.80;;;;;;5119114;27;19924;-58
2021/07/04 09:09:13;;;;;;;;;;;28.50;49.80;;;;;;5122922;27;19924;-58
2021/07/04 09:12:10;;;;;;;;;;;28.60;49.70;;;;;;5132138;27;19927;-58
2021/07/04 09:14:38;;;;;;;;;;;28.60;49.70;;;;;;5114164;27;20018;-58
2021/07/04 09:17:33;;;;;;;;;;;28.70;49.60;;;;;;5120242;27;20433;-58
2021/07/04 09:20:02;;;;;;;;;;;28.70;50.10;;;;;;5128720;27;19923;-58
2021/07/04 09:22:31;;;;;;;;;;;28.80;49.50;;;;;;5131955;27;20288;-58
2021/07/04 09:25:05;;;;;;;;;;;28.80;49.40;;;;;;5133266;27;19923;-58
2021/07/04 09:27:32;;;;;;;;;;;28.80;49.30;;;;;;5131323;27;19928;-58
2021/07/04 09:29:59;;;;;;;;;;;28.90;49.20;;;;;;5133834;27;19930;-58
2021/07/04 09:32:27;;;;;;;;;;;28.90;49.10;;;;;;5131717;27;19930;-58
2021/07/04 09:34:58;;;;;;;;;;;28.90;49.10;;;;;;5132477;27;19998;-58
2021/07/04 09:37:36;;;;;;;;;;;28.90;49.00;;;;;;5124208;27;19931;-58
2021/07/04 09:40:10;;;;;;;;;;;29.00;49.00;;;;;;5133207;27;20279;-58
2021/07/04 09:42:55;;;;;;;;;;;29.00;49.00;;;;;;5125437;27;20375;-58
2021/07/04 09:45:24;;;;;;;;;;;29.00;49.00;;;;;;5116189;27;20022;-58
2021/07/04 09:47:52;;;;;;;;;;;29.10;48.90;;;;;;5125355;27;19923;-58
2021/07/04 09:50:20;;;;;;;;;;;29.10;48.90;;;;;;5132435;27;19924;-58
2021/07/04 09:53:00;;;;;;;;;;;29.10;48.90;;;;;;5126197;27;20362;-58
2021/07/04 09:55:28;;;;;;;;;;;29.10;48.90;;;;;;5125346;27;20006;-58
2021/07/04 09:57:58;;;;;;;;;;;29.10;48.90;;;;;;5132967;27;20031;-58
2021/07/04 10:00:27;;;;;;;;;;;29.10;48.80;;;;;;5133484;27;19923;-58
2021/07/04 10:03:04;;;;;;;;;;;29.10;48.80;;;;;;5133337;27;19952;-58
2021/07/04 10:05:32;;;;;;;;;;;29.10;48.80;;;;;;5133605;27;20619;-58
2021/07/04 10:07:59;;;;;;;;;;;29.10;48.70;;;;;;5134799;27;19924;-58
2021/07/04 10:10:26;;;;;;;;;;;29.10;48.80;;;;;;5132370;27;19988;-58
2021/07/04 10:12:54;;;;;;;;;;;29.20;48.80;;;;;;5131878;27;20051;-58
2021/07/04 10:15:21;;;;;;;;;;;29.10;48.70;;;;;;5133083;27;20355;-58
2021/07/04 10:17:49;;;;;;;;;;;29.10;48.70;;;;;;5132086;27;19924;-58
2021/07/04 10:20:17;;;;;;;;;;;29.10;48.70;;;;;;5130827;27;19924;-58
2021/07/04 10:22:44;;;;;;;;;;;29.20;48.80;;;;;;5130375;27;20379;-58
2021/07/04 10:25:11;;;;;;;;;;;29.10;48.80;;;;;;5134223;27;19924;-58
2021/07/04 10:27:39;;;;;;;;;;;29.10;48.80;;;;;;5132102;27;19927;-58
2021/07/04 10:30:07;;;;;;;;;;;29.10;48.80;;;;;;5132003;27;19923;-58
2021/07/04 10:32:34;;;;;;;;;;;29.10;48.80;;;;;;5113929;27;19964;-58
2021/07/04 10:35:06;;;;;;;;;;;29.10;48.70;;;;;;5133908;27;19927;-58
2021/07/04 10:37:34;;;;;;;;;;;29.20;48.80;;;;;;5131092;27;19931;-57
2021/07/04 10:40:16;;;;;;;;;;;29.20;48.70;;;;;;5130525;27;19977;-57
2021/07/04 10:42:43;;;;;;;;;;;29.20;48.70;;;;;;5131258;27;19934;-58
2021/07/04 10:45:29;;;;;;;;;;;29.20;48.70;;;;;;5131556;27;19924;-58
2021/07/04 10:47:58;;;;;;;;;;;29.20;48.70;;;;;;5114688;28;20279;-58
2021/07/04 10:50:25;;;;;;;;;;;29.20;48.70;;;;;;5116680;27;19931;-58
2021/07/04 10:52:53;;;;;;;;;;;29.20;49.30;;;;;;5115711;27;19924;-58
2021/07/04 10:55:38;;;;;;;;;;;29.20;48.70;;;;;;5131042;27;19923;-58
2021/07/04 10:58:06;;;;;;;;;;;29.20;48.70;;;;;;5116399;27;20307;-57
2021/07/04 11:00:34;;;;;;;;;;;29.20;48.60;;;;;;5131895;27;20377;-58
2021/07/04 11:03:30;;;;;;;;;;;29.20;48.60;;;;;;5129941;27;19930;-58
2021/07/04 11:05:58;;;;;;;;;;;29.20;48.60;;;;;;5128071;27;19923;-58
2021/07/04 11:08:26;;;;;;;;;;;29.20;48.70;;;;;;5133566;27;19935;-58
2021/07/04 11:10:58;;;;;;;;;;;29.20;48.70;;;;;;5131769;28;20306;-58
2021/07/04 11:13:28;;;;;;;;;;;29.20;48.60;;;;;;5131184;28;20439;-58
2021/07/04 11:16:05;;;;;;;;;;;29.30;48.70;;;;;;5132259;28;19924;-58
2021/07/04 11:18:47;;;;;;;;;;;29.30;48.70;;;;;;5130745;28;19935;-58
2021/07/04 11:21:15;;;;;;;;;;;29.30;48.60;;;;;;5132209;28;20336;-58
2021/07/04 11:23:42;;;;;;;;;;;29.30;48.60;;;;;;5131747;28;19928;-58
2021/07/04 11:26:14;;;;;;;;;;;29.30;48.60;;;;;;5129634;28;19952;-58
2021/07/04 11:28:46;;;;;;;;;;;29.30;48.70;;;;;;5115316;28;19924;-58
2021/07/04 11:31:13;;;;;;;;;;;29.20;48.60;;;;;;5129536;28;19980;-58
2021/07/04 11:33:42;;;;;;;;;;;29.20;48.60;;;;;;5129695;28;19970;-58
2021/07/04 11:36:15;;;;;;;;;;;29.20;48.60;;;;;;5120154;28;19932;-58
2021/07/04 11:38:42;;;;;;;;;;;29.30;48.70;;;;;;5116289;28;19928;-58
2021/07/04 11:41:30;;;;;;;;;;;29.30;48.70;;;;;;5113763;28;19928;-58
2021/07/04 11:44:02;;;;;;;;;;;29.30;48.70;;;;;;5127972;28;19927;-58
2021/07/04 11:46:29;;;;;;;;;;;29.30;48.70;;;;;;5133154;28;20374;-58
2021/07/04 11:49:10;;;;;;;;;;;29.30;48.70;;;;;;5119711;28;19993;-58
2021/07/04 11:51:48;;;;;;;;;;;29.30;48.60;;;;;;5115273;28;19969;-58
2021/07/04 11:54:15;;;;;;;;;;;29.30;48.70;;;;;;5126880;28;19931;-58
2021/07/04 11:56:43;;;;;;;;;;;29.30;48.70;;;;;;5130582;28;19923;-58
2021/07/04 11:59:12;;;;;;;;;;;29.20;48.60;;;;;;5130166;28;19927;-58
2021/07/04 12:01:50;;;;;;;;;;;29.20;48.80;;;;;;5129598;28;19924;-58
2021/07/04 12:04:18;;;;;;;;;;;29.20;48.80;;;;;;5130814;28;19963;-58
2021/07/04 12:06:52;;;;;;;;;;;29.20;49.00;;;;;;5129282;28;19955;-58
2021/07/04 12:09:19;;;;;;;;;;;29.10;48.90;;;;;;5130801;28;19953;-58
2021/07/04 12:11:50;;;;;;;;;;;29.10;49.10;;;;;;5130292;28;19968;-58
2021/07/04 12:14:29;;;;;;;;;;;29.00;49.10;;;;;;5129036;28;19972;-58
2021/07/04 12:16:58;;;;;;;;;;;28.90;49.20;;;;;;5133752;27;19946;-58
2021/07/04 12:19:30;;;;;;;;;;;28.90;49.40;;;;;;5134754;27;19988;-58
2021/07/04 12:21:58;;;;;;;;;;;28.90;49.50;;;;;;5133201;27;19973;-59
2021/07/04 12:24:36;;;;;;;;;;;28.80;49.50;;;;;;5134026;27;19923;-59
2021/07/04 12:27:03;;;;;;;;;;;28.80;49.60;;;;;;5132756;27;19923;-58
2021/07/04 12:29:30;;;;;;;;;;;28.70;49.70;;;;;;5135356;27;19965;-57
2021/07/04 12:32:01;;;;;;;;;;;28.70;49.80;;;;;;5134100;27;19992;-57
2021/07/04 12:34:29;;;;;;;;;;;28.70;50.00;;;;;;5127546;27;19974;-58
2021/07/04 12:36:56;;;;;;;;;;;28.60;50.00;;;;;;5123386;27;20268;-58
2021/07/04 12:39:30;;;;;;;;;;;28.60;50.00;;;;;;5130761;27;19955;-58
2021/07/04 12:41:57;;;;;;;;;;;28.50;50.10;;;;;;5122439;27;19924;-58
2021/07/04 12:44:25;;;;;;;;;;;28.50;50.20;;;;;;5132614;27;19927;-58
2021/07/04 12:46:52;;;;;;;;;;;28.40;50.20;;;;;;5135141;27;19946;-59
2021/07/04 12:49:19;;;;;;;;;;;28.40;50.30;;;;;;5133378;27;19972;-58
2021/07/04 12:51:46;;;;;;;;;;;28.40;50.30;;;;;;5134555;27;20386;-59
2021/07/04 12:54:21;;;;;;;;;;;28.40;50.40;;;;;;5134553;27;19927;-58
2021/07/04 12:56:51;;;;;;;;;;;28.40;50.40;;;;;;5133611;27;19977;-58
2021/07/04 12:59:26;;;;;;;;;;;28.40;50.40;;;;;;5132096;27;19931;-59
2021/07/04 13:01:54;;;;;;;;;;;28.40;50.40;;;;;;5133662;27;19924;-59
2021/07/04 13:04:22;;;;;;;;;;;28.40;50.40;;;;;;5134497;27;20010;-58
2021/07/04 13:07:00;;;;;;;;;;;28.40;50.40;;;;;;5115278;28;19973;-58
2021/07/04 13:09:29;;;;;;;;;;;28.40;50.40;;;;;;5118067;27;19946;-58
2021/07/04 13:11:57;;;;;;;;;;;28.30;50.50;;;;;;5133665;27;19974;-58
2021/07/04 13:14:38;;;;;;;;;;;28.30;50.50;;;;;;5134338;27;19927;-59
2021/07/04 13:17:06;;;;;;;;;;;28.30;50.50;;;;;;5116884;27;19973;-58
2021/07/04 13:19:34;;;;;;;;;;;28.30;50.50;;;;;;5133360;27;20021;-58
2021/07/04 13:22:11;;;;;;;;;;;28.30;50.50;;;;;;5133906;27;19928;-58
2021/07/04 13:24:43;;;;;;;;;;;28.30;50.50;;;;;;5116200;27;19924;-58
2021/07/04 13:27:17;;;;;;;;;;;28.30;50.60;;;;;;5134652;27;19924;-58
2021/07/04 13:29:44;;;;;;;;;;;28.30;50.60;;;;;;5115920;27;19931;-58
2021/07/04 13:32:20;;;;;;;;;;;28.30;50.60;;;;;;5116603;27;19931;-58
2021/07/04 13:35:07;;;;;;;;;;;28.30;50.60;;;;;;5135127;27;19923;-59
2021/07/04 13:37:36;;;;;;;;;;;28.30;50.60;;;;;;5115643;27;20391;-58
2021/07/04 13:40:05;;;;;;;;;;;28.30;50.50;;;;;;5114998;28;20053;-57
2021/07/04 13:42:33;;;;;;;;;;;28.30;50.50;;;;;;5133795;27;19980;-58
2021/07/04 13:45:01;;;;;;;;;;;28.30;50.50;;;;;;5116387;27;19924;-58
2021/07/04 13:47:29;;;;;;;;;;;28.30;50.50;;;;;;5131670;27;19923;-58
2021/07/04 13:49:56;;;;;;;;;;;28.30;50.50;;;;;;5116812;27;19976;-58
2021/07/04 13:52:24;;;;;;;;;;;28.30;50.60;;;;;;5132763;27;19968;-58
2021/07/04 13:54:52;;;;;;;;;;;28.30;50.60;;;;;;5133480;27;20006;-57
2021/07/04 13:57:19;;;;;;;;;;;28.30;50.60;;;;;;5130834;27;19969;-58
2021/07/04 13:59:46;;;;;;;;;;;28.30;50.60;;;;;;5132268;27;19931;-58
2021/07/04 14:02:13;;;;;;;;;;;28.30;50.60;;;;;;5133833;27;19930;-58
2021/07/04 14:04:40;;;;;;;;;;;28.30;50.60;;;;;;5130809;27;19968;-58
2021/07/04 14:07:10;;;;;;;;;;;28.20;50.60;;;;;;5132500;27;20383;-58
2021/07/04 14:09:38;;;;;;;;;;;28.20;50.60;;;;;;5133431;27;19923;-58
2021/07/04 14:12:05;;;;;;;;;;;28.20;50.60;;;;;;5133106;27;19927;-57
2021/07/04 14:14:33;;;;;;;;;;;28.20;50.70;;;;;;5130748;27;19934;-57
2021/07/04 14:17:02;;;;;;;;;;;28.20;50.70;;;;;;5133311;27;19930;-58
2021/07/04 14:19:30;;;;;;;;;;;28.20;50.70;;;;;;5133332;27;19923;-58
2021/07/04 14:21:57;;;;;;;;;;;28.20;50.80;;;;;;5129428;27;19938;-58
2021/07/04 14:24:24;;;;;;;;;;;28.20;50.80;;;;;;5118521;27;19968;-58